Time;durP1;ratioP1;P1;durP2;ratioP2;P2;SDS_P1;SDS_P2;PMS_P1;PMS_P2;Temp;Humidity;BMP_temperature;BMP_pressure;BME280_temperature;BME280_humidity;BME280_pressure;Samples;Min_cycle;Max_cycle;Signal;HPM_P1;HPM_P2
2023/09/12 00:01:16;;;;;;;53.70;26.40;;;;;;;-128.00;-1.00;-1.00;101017;317;1004040;-35
2023/09/12 00:03:41;;;;;;;50.20;22.90;;;;;;;-128.00;-1.00;-1.00;100976;316;1003509;-30
2023/09/12 00:06:07;;;;;;;37.10;18.50;;;;;;;-128.00;-1.00;-1.00;101042;317;1003481;-29
2023/09/12 00:08:33;;;;;;;15.70;11.30;;;;;;;-128.00;-1.00;-1.00;100982;317;1003860;-30
2023/09/12 00:11:00;;;;;;;13.10;10.90;;;;;;;-128.00;-1.00;-1.00;100750;317;1002988;-35
2023/09/12 00:13:27;;;;;;;22.20;13.30;;;;;;;-128.00;-1.00;-1.00;100850;317;1003751;-36
2023/09/12 00:15:53;;;;;;;55.80;28.10;;;;;;;-128.00;-1.00;-1.00;101028;316;1005167;-30
2023/09/12 00:18:18;;;;;;;;;;;;;;;-128.00;-1.00;-1.00;101025;317;1002872;-29
2023/09/12 00:20:44;;;;;;;54.40;24.60;;;;;;;-128.00;-1.00;-1.00;101065;317;1003157;-30
2023/09/12 00:23:10;;;;;;;18.70;13.00;;;;;;;-128.00;-1.00;-1.00;100974;317;1003479;-30
2023/09/12 00:25:35;;;;;;;24.40;15.70;;;;;;;-128.00;-1.00;-1.00;100755;317;1004216;-34
2023/09/12 00:28:01;;;;;;;18.80;12.20;;;;;;;-128.00;-1.00;-1.00;100782;318;1002941;-30
2023/09/12 00:30:27;;;;;;;40.90;29.70;;;;;;;-128.00;-1.00;-1.00;100933;318;1004214;-35
2023/09/12 00:32:52;;;;;;;26.50;17.70;;;;;;;-128.00;-1.00;-1.00;100822;317;1003650;-34
2023/09/12 00:35:18;;;;;;;15.00;8.30;;;;;;;-128.00;-1.00;-1.00;101060;316;1003835;-36
2023/09/12 01:19:20;;;;;;;25.60;18.80;;;;;;;-99.75;19.20;19821.30;57815;318;7354278;-35
2023/09/12 01:22:05;;;;;;;24.80;18.10;;;;;;;-128.00;-1.00;-1.00;18998;321;7505030;-31
2023/09/12 01:24:55;;;;;;;20.10;15.70;;;;;;;-128.00;-1.00;-1.00;19017;319;7506381;-34
2023/09/12 01:27:34;;;;;;;16.30;12.50;;;;;;;-128.00;-1.00;-1.00;19051;317;7505128;-34
2023/09/12 01:30:03;;;;;;;18.10;13.10;;;;;;;-128.00;-1.00;-1.00;19021;323;7505059;-35
2023/09/12 01:32:29;;;;;;;18.30;15.60;;;;;;;-128.00;-1.00;-1.00;19000;319;7506605;-35
2023/09/12 01:34:55;;;;;;;21.50;14.60;;;;;;;-128.00;-1.00;-1.00;19054;317;7504846;-31
2023/09/12 01:37:21;;;;;;;19.50;14.50;;;;;;;-128.00;-1.00;-1.00;19035;317;7507127;-35
2023/09/12 01:39:46;;;;;;;18.30;13.60;;;;;;;-128.00;-1.00;-1.00;19025;317;7505055;-31
2023/09/12 01:42:14;;;;;;;16.50;13.70;;;;;;;-128.00;-1.00;-1.00;19009;317;7504605;-31
2023/09/12 01:44:41;;;;;;;16.80;12.60;;;;;;;-128.00;-1.00;-1.00;19038;318;7505329;-31
2023/09/12 01:47:07;;;;;;;18.40;13.90;;;;;;;-128.00;-1.00;-1.00;19008;322;7504890;-31
2023/09/12 01:49:33;;;;;;;23.60;15.80;;;;;;;-128.00;-1.00;-1.00;19448;317;7505566;-35
2023/09/12 01:51:59;;;;;;;20.60;15.20;;;;;;;-128.00;-1.00;-1.00;19391;319;7504693;-35
2023/09/12 01:54:26;;;;;;;21.60;15.20;;;;;;;-128.00;-1.00;-1.00;19441;317;7504656;-30
2023/09/12 01:56:52;;;;;;;15.80;14.10;;;;;;;-128.00;-1.00;-1.00;19035;317;7504615;-36
2023/09/12 01:59:19;;;;;;;17.40;14.90;;;;;;;-128.00;-1.00;-1.00;19441;317;7505263;-30
2023/09/12 02:01:44;;;;;;;15.00;12.50;;;;;;;-128.00;-1.00;-1.00;19014;319;7504586;-34
2023/09/12 02:04:10;;;;;;;21.30;13.30;;;;;;;-128.00;-1.00;-1.00;19010;317;7504523;-31
2023/09/12 02:06:36;;;;;;;23.20;16.00;;;;;;;-128.00;-1.00;-1.00;19440;317;7505134;-30
2023/09/12 02:09:02;;;;;;;19.30;15.00;;;;;;;-128.00;-1.00;-1.00;19446;323;7506477;-34
2023/09/12 02:11:28;;;;;;;19.50;14.50;;;;;;;-128.00;-1.00;-1.00;19004;324;7504419;-32
2023/09/12 02:13:54;;;;;;;17.60;14.10;;;;;;;-128.00;-1.00;-1.00;19408;324;7504377;-35
2023/09/12 02:16:22;;;;;;;20.10;15.50;;;;;;;-128.00;-1.00;-1.00;18981;317;7505103;-34
2023/09/12 02:18:48;;;;;;;23.10;15.70;;;;;;;-128.00;-1.00;-1.00;19442;317;7505862;-35
2023/09/12 02:21:15;;;;;;;20.90;15.70;;;;;;;-128.00;-1.00;-1.00;19438;318;7505029;-35
2023/09/12 02:23:42;;;;;;;17.90;13.90;;;;;;;-128.00;-1.00;-1.00;19030;323;7507068;-31
2023/09/12 02:26:07;;;;;;;15.40;13.00;;;;;;;-128.00;-1.00;-1.00;19002;323;7504542;-33
2023/09/12 02:28:33;;;;;;;23.40;14.30;;;;;;;-128.00;-1.00;-1.00;19013;318;7506496;-30
2023/09/12 02:30:59;;;;;;;16.80;12.60;;;;;;;-128.00;-1.00;-1.00;19022;318;7504878;-31
2023/09/12 02:33:24;;;;;;;17.20;13.10;;;;;;;-128.00;-1.00;-1.00;19026;318;7506402;-34
2023/09/12 02:35:50;;;;;;;17.40;14.10;;;;;;;-128.00;-1.00;-1.00;19417;320;7505636;-31
2023/09/12 02:38:17;;;;;;;20.50;15.70;;;;;;;-128.00;-1.00;-1.00;19481;318;7505077;-34
2023/09/12 02:40:43;;;;;;;18.60;14.40;;;;;;;-128.00;-1.00;-1.00;19046;323;7506569;-30
2023/09/12 02:43:09;;;;;;;20.40;14.70;;;;;;;-128.00;-1.00;-1.00;19455;318;7505338;-31
2023/09/12 02:45:35;;;;;;;20.90;14.60;;;;;;;-128.00;-1.00;-1.00;19439;318;7506321;-35
2023/09/12 02:48:02;;;;;;;13.30;11.20;;;;;;;-128.00;-1.00;-1.00;19435;318;7504782;-34
2023/09/12 02:50:28;;;;;;;16.10;13.20;;;;;;;-128.00;-1.00;-1.00;19433;318;7505080;-30
2023/09/12 02:52:54;;;;;;;21.70;17.50;;;;;;;-128.00;-1.00;-1.00;19454;318;7505617;-34
2023/09/12 02:55:20;;;;;;;22.20;16.60;;;;;;;-128.00;-1.00;-1.00;19446;323;7505131;-31
2023/09/12 02:57:46;;;;;;;24.80;14.70;;;;;;;-128.00;-1.00;-1.00;19443;321;7504775;-34
2023/09/12 03:00:13;;;;;;;19.50;16.00;;;;;;;-128.00;-1.00;-1.00;19445;318;7505102;-34
2023/09/12 03:02:39;;;;;;;15.10;12.00;;;;;;;-128.00;-1.00;-1.00;19008;323;7505684;-35
2023/09/12 03:05:05;;;;;;;16.30;11.10;;;;;;;-128.00;-1.00;-1.00;19422;323;7505595;-31
2023/09/12 03:07:32;;;;;;;21.80;14.40;;;;;;;-128.00;-1.00;-1.00;19015;318;7506534;-35
2023/09/12 03:09:57;;;;;;;17.00;13.70;;;;;;;-128.00;-1.00;-1.00;19027;318;7505434;-35
2023/09/12 03:12:23;;;;;;;16.70;13.80;;;;;;;-128.00;-1.00;-1.00;19017;318;7506470;-31
2023/09/12 03:14:49;;;;;;;22.50;15.10;;;;;;;-128.00;-1.00;-1.00;19432;318;7505512;-35
2023/09/12 03:17:16;;;;;;;20.10;14.70;;;;;;;-128.00;-1.00;-1.00;19011;318;7506015;-35
2023/09/12 03:19:42;;;;;;;20.80;14.60;;;;;;;-128.00;-1.00;-1.00;19469;318;7504961;-35
2023/09/12 03:22:09;;;;;;;22.10;15.70;;;;;;;-128.00;-1.00;-1.00;19424;320;7505487;-32
2023/09/12 03:24:35;;;;;;;16.70;15.00;;;;;;;-128.00;-1.00;-1.00;19010;323;7504962;-30
2023/09/12 03:27:00;;;;;;;16.50;12.80;;;;;;;-128.00;-1.00;-1.00;19005;322;7507149;-31
2023/09/12 03:29:26;;;;;;;19.30;13.50;;;;;;;-128.00;-1.00;-1.00;19410;319;7505396;-31
2023/09/12 03:31:53;;;;;;;16.30;12.20;;;;;;;-128.00;-1.00;-1.00;19435;318;7505190;-31
2023/09/12 03:34:19;;;;;;;55.80;38.40;;;;;;;-128.00;-1.00;-1.00;19451;321;7505220;-31
2023/09/12 03:36:45;;;;;;;24.00;20.10;;;;;;;-128.00;-1.00;-1.00;19454;318;7504614;-31
2023/09/12 03:39:13;;;;;;;23.90;16.30;;;;;;;-128.00;-1.00;-1.00;19406;318;7505475;-35
2023/09/12 03:41:39;;;;;;;20.50;14.70;;;;;;;-128.00;-1.00;-1.00;19013;323;7506037;-30
2023/09/12 03:44:05;;;;;;;18.00;14.10;;;;;;;-128.00;-1.00;-1.00;19021;323;7504670;-31
2023/09/12 03:46:31;;;;;;;17.00;13.20;;;;;;;-128.00;-1.00;-1.00;19024;317;7506303;-34
2023/09/12 03:48:57;;;;;;;20.20;14.80;;;;;;;-128.00;-1.00;-1.00;19458;318;7504332;-34
2023/09/12 03:51:23;;;;;;;20.40;15.10;;;;;;;-128.00;-1.00;-1.00;19445;318;7504740;-32
2023/09/12 03:53:49;;;;;;;29.00;15.60;;;;;;;-128.00;-1.00;-1.00;19459;323;7505524;-30
2023/09/12 03:56:16;;;;;;;21.50;14.30;;;;;;;-128.00;-1.00;-1.00;18998;323;7505056;-30
2023/09/12 03:58:43;;;;;;;44.40;33.70;;;;;;;-128.00;-1.00;-1.00;19009;318;7506044;-36
2023/09/12 04:01:09;;;;;;;32.60;23.80;;;;;;;-128.00;-1.00;-1.00;19458;321;7505013;-36
2023/09/12 04:03:35;;;;;;;20.80;15.30;;;;;;;-128.00;-1.00;-1.00;19429;318;7505945;-35
2023/09/12 04:06:01;;;;;;;20.20;14.60;;;;;;;-128.00;-1.00;-1.00;19472;318;7504978;-35
2023/09/12 04:08:27;;;;;;;21.60;15.50;;;;;;;-128.00;-1.00;-1.00;19450;321;7504762;-35
2023/09/12 04:10:53;;;;;;;28.70;15.30;;;;;;;-128.00;-1.00;-1.00;19416;318;7505084;-32
2023/09/12 04:13:19;;;;;;;24.00;17.10;;;;;;;-128.00;-1.00;-1.00;19462;322;7505429;-35
2023/09/12 04:15:46;;;;;;;22.50;16.50;;;;;;;-128.00;-1.00;-1.00;19448;321;7504874;-30
2023/09/12 04:18:12;;;;;;;29.10;17.70;;;;;;;-128.00;-1.00;-1.00;19414;319;7505106;-35
2023/09/12 04:20:38;;;;;;;27.80;19.20;;;;;;;-128.00;-1.00;-1.00;19452;321;7505573;-34
2023/09/12 04:23:04;;;;;;;24.90;16.80;;;;;;;-128.00;-1.00;-1.00;19427;318;7504961;-34
2023/09/12 04:25:30;;;;;;;33.70;25.40;;;;;;;-128.00;-1.00;-1.00;19410;319;7505027;-34
2023/09/12 04:27:57;;;;;;;33.20;26.30;;;;;;;-128.00;-1.00;-1.00;19457;318;7504518;-35
2023/09/12 04:30:23;;;;;;;26.30;19.20;;;;;;;-128.00;-1.00;-1.00;19435;319;7504551;-34
2023/09/12 04:32:49;;;;;;;20.80;14.20;;;;;;;-128.00;-1.00;-1.00;19020;318;7504808;-31
2023/09/12 04:35:15;;;;;;;22.50;16.70;;;;;;;-128.00;-1.00;-1.00;19454;318;7504836;-31
2023/09/12 04:37:41;;;;;;;15.70;12.80;;;;;;;-128.00;-1.00;-1.00;18979;318;7506381;-31
2023/09/12 04:40:08;;;;;;;14.70;12.60;;;;;;;-128.00;-1.00;-1.00;19005;318;7505416;-30
2023/09/12 04:42:34;;;;;;;19.00;14.60;;;;;;;-128.00;-1.00;-1.00;19023;318;7505122;-34
2023/09/12 04:44:59;;;;;;;20.80;15.80;;;;;;;-128.00;-1.00;-1.00;19018;323;7505442;-31
2023/09/12 04:47:27;;;;;;;23.30;17.60;;;;;;;-128.00;-1.00;-1.00;19450;323;7505406;-30
2023/09/12 04:49:52;;;;;;;18.70;14.40;;;;;;;-128.00;-1.00;-1.00;19032;323;7504494;-35
2023/09/12 04:52:19;;;;;;;22.10;16.10;;;;;;;-128.00;-1.00;-1.00;19450;318;7504800;-36
2023/09/12 04:54:45;;;;;;;20.90;16.60;;;;;;;-128.00;-1.00;-1.00;19444;318;7504662;-32
2023/09/12 04:57:12;;;;;;;19.80;13.80;;;;;;;-128.00;-1.00;-1.00;19441;323;7504552;-32
2023/09/12 04:59:37;;;;;;;18.10;15.20;;;;;;;-128.00;-1.00;-1.00;19017;321;7506439;-35
2023/09/12 05:02:03;;;;;;;17.90;14.00;;;;;;;-128.00;-1.00;-1.00;19008;322;7504876;-32
2023/09/12 05:04:29;;;;;;;16.70;13.30;;;;;;;-128.00;-1.00;-1.00;19030;322;7504654;-35
2023/09/12 05:06:55;;;;;;;15.80;13.20;;;;;;;-128.00;-1.00;-1.00;19009;323;7505071;-31
2023/09/12 05:09:21;;;;;;;17.20;14.60;;;;;;;-128.00;-1.00;-1.00;19452;318;7505413;-35
2023/09/12 05:11:47;;;;;;;20.20;14.90;;;;;;;-128.00;-1.00;-1.00;19437;318;7504749;-35
2023/09/12 05:14:13;;;;;;;18.20;11.90;;;;;;;-128.00;-1.00;-1.00;19449;323;7504588;-35
2023/09/12 05:16:39;;;;;;;19.10;13.30;;;;;;;-128.00;-1.00;-1.00;19453;322;7504756;-32
2023/09/12 05:19:06;;;;;;;17.80;13.50;;;;;;;-128.00;-1.00;-1.00;19424;320;7504724;-35
2023/09/12 05:21:32;;;;;;;15.10;11.80;;;;;;;-128.00;-1.00;-1.00;19454;318;7504854;-32
2023/09/12 05:23:58;;;;;;;22.10;12.00;;;;;;;-128.00;-1.00;-1.00;19432;319;7505405;-35
2023/09/12 05:26:24;;;;;;;20.00;12.40;;;;;;;-128.00;-1.00;-1.00;19455;318;7504770;-31
2023/09/12 05:28:50;;;;;;;13.60;11.80;;;;;;;-128.00;-1.00;-1.00;19441;318;7505383;-32
2023/09/12 05:31:17;;;;;;;17.60;12.80;;;;;;;-128.00;-1.00;-1.00;19440;322;7504543;-31
2023/09/12 05:33:43;;;;;;;18.90;12.40;;;;;;;-128.00;-1.00;-1.00;19409;319;7504564;-35
2023/09/12 05:36:09;;;;;;;15.60;11.10;;;;;;;-128.00;-1.00;-1.00;19461;323;7504390;-32
2023/09/12 05:38:35;;;;;;;13.60;10.50;;;;;;;-128.00;-1.00;-1.00;19421;323;7504576;-33
2023/09/12 05:41:01;;;;;;;13.50;11.60;;;;;;;-128.00;-1.00;-1.00;19448;321;7504937;-36
2023/09/12 05:43:28;;;;;;;12.90;11.40;;;;;;;-128.00;-1.00;-1.00;19435;318;7504497;-35
2023/09/12 05:45:54;;;;;;;18.70;11.60;;;;;;;-128.00;-1.00;-1.00;19422;318;7504926;-35
2023/09/12 05:48:20;;;;;;;20.60;11.10;;;;;;;-128.00;-1.00;-1.00;19417;322;7504496;-31
2023/09/12 05:50:46;;;;;;;16.10;11.40;;;;;;;-128.00;-1.00;-1.00;19427;318;7505261;-31
2023/09/12 05:53:12;;;;;;;13.90;12.00;;;;;;;-128.00;-1.00;-1.00;19457;318;7504782;-35
2023/09/12 05:55:38;;;;;;;12.10;10.80;;;;;;;-128.00;-1.00;-1.00;19426;318;7505015;-31
2023/09/12 05:58:05;;;;;;;16.20;11.60;;;;;;;-128.00;-1.00;-1.00;19449;318;7504574;-31
2023/09/12 06:00:32;;;;;;;11.90;10.70;;;;;;;-128.00;-1.00;-1.00;18982;323;7504746;-35
2023/09/12 06:02:57;;;;;;;15.00;10.80;;;;;;;-128.00;-1.00;-1.00;19041;318;7505005;-35
2023/09/12 06:05:23;;;;;;;15.60;10.70;;;;;;;-128.00;-1.00;-1.00;19059;318;7504854;-35
2023/09/12 06:07:49;;;;;;;17.60;10.90;;;;;;;-128.00;-1.00;-1.00;19028;321;7504770;-35
2023/09/12 06:10:15;;;;;;;19.00;12.10;;;;;;;-128.00;-1.00;-1.00;19024;323;7504835;-32
2023/09/12 06:12:41;;;;;;;15.80;11.30;;;;;;;-128.00;-1.00;-1.00;19011;320;7505968;-32
2023/09/12 06:15:07;;;;;;;11.00;9.10;;;;;;;-128.00;-1.00;-1.00;19004;323;7504886;-35
2023/09/12 06:17:32;;;;;;;13.70;9.70;;;;;;;-128.00;-1.00;-1.00;19012;318;7505290;-35
2023/09/12 06:19:58;;;;;;;12.20;10.10;;;;;;;-128.00;-1.00;-1.00;19025;323;7505057;-32
2023/09/12 06:22:24;;;;;;;17.10;10.10;;;;;;;-128.00;-1.00;-1.00;19439;323;7504804;-33
2023/09/12 06:24:50;;;;;;;12.80;10.50;;;;;;;-128.00;-1.00;-1.00;19458;319;7505306;-32
2023/09/12 06:27:19;;;;;;;12.50;9.90;;;;;;;-128.00;-1.00;-1.00;19452;318;7504628;-36
2023/09/12 06:29:48;;;;;;;10.90;9.20;;;;;;;-128.00;-1.00;-1.00;19048;321;7506300;-35
2023/09/12 06:32:15;;;;;;;11.10;8.80;;;;;;;-128.00;-1.00;-1.00;19019;318;7504506;-35
2023/09/12 06:34:42;;;;;;;14.30;9.90;;;;;;;-128.00;-1.00;-1.00;19036;318;7505205;-32
2023/09/12 06:37:08;;;;;;;11.30;10.10;;;;;;;-128.00;-1.00;-1.00;19002;318;7506863;-32
2023/09/12 06:39:34;;;;;;;13.40;9.60;;;;;;;-128.00;-1.00;-1.00;18990;318;7504590;-33
2023/09/12 06:42:00;;;;;;;14.70;11.40;;;;;;;-128.00;-1.00;-1.00;19453;318;7504539;-36
2023/09/12 06:44:26;;;;;;;13.80;10.30;;;;;;;-128.00;-1.00;-1.00;19442;318;7504623;-32
2023/09/12 06:46:52;;;;;;;11.00;9.90;;;;;;;-128.00;-1.00;-1.00;19450;323;7505183;-36
2023/09/12 06:49:18;;;;;;;12.00;10.10;;;;;;;-128.00;-1.00;-1.00;19380;322;7505153;-32
2023/09/12 06:51:44;;;;;;;10.20;9.10;;;;;;;-128.00;-1.00;-1.00;19410;321;7505839;-35
2023/09/12 06:54:12;;;;;;;12.30;9.90;;;;;;;-128.00;-1.00;-1.00;19385;324;7505320;-36
2023/09/12 06:56:38;;;;;;;10.40;9.10;;;;;;;-128.00;-1.00;-1.00;19031;323;7504837;-32
2023/09/12 06:59:04;;;;;;;15.30;9.50;;;;;;;-128.00;-1.00;-1.00;19436;318;7504311;-36
2023/09/12 07:01:31;;;;;;;13.80;11.10;;;;;;;-128.00;-1.00;-1.00;19413;320;7506209;-32
2023/09/12 07:03:57;;;;;;;17.40;10.00;;;;;;;-128.00;-1.00;-1.00;19465;318;7507181;-32
2023/09/12 07:06:23;;;;;;;14.00;10.40;;;;;;;-128.00;-1.00;-1.00;19465;318;7504807;-32
2023/09/12 07:08:51;;;;;;;24.20;11.90;;;;;;;-128.00;-1.00;-1.00;19391;323;7506476;-35
2023/09/12 07:11:17;;;;;;;13.00;9.40;;;;;;;-128.00;-1.00;-1.00;18970;323;7506464;-32
2023/09/12 07:13:42;;;;;;;14.00;10.00;;;;;;;-128.00;-1.00;-1.00;18998;321;7505497;-32
2023/09/12 07:16:08;;;;;;;12.20;9.50;;;;;;;-128.00;-1.00;-1.00;19002;324;7504713;-32
2023/09/12 07:18:34;;;;;;;10.80;8.90;;;;;;;-128.00;-1.00;-1.00;19030;318;7504920;-32
2023/09/12 07:21:00;;;;;;;16.00;9.60;;;;;;;-128.00;-1.00;-1.00;18990;320;7505120;-33
2023/09/12 07:23:27;;;;;;;9.20;8.30;;;;;;;-128.00;-1.00;-1.00;19032;318;7504946;-36
2023/09/12 07:25:55;;;;;;;9.90;8.90;;;;;;;-128.00;-1.00;-1.00;19015;319;7506111;-33
2023/09/12 07:28:21;;;;;;;12.10;8.90;;;;;;;-128.00;-1.00;-1.00;18999;323;7505150;-36
2023/09/12 07:30:46;;;;;;;12.20;9.40;;;;;;;-128.00;-1.00;-1.00;19028;317;7505563;-35
2023/09/12 07:33:12;;;;;;;12.10;8.90;;;;;;;-128.00;-1.00;-1.00;19037;321;7504806;-32
2023/09/12 07:35:38;;;;;;;10.80;9.70;;;;;;;-128.00;-1.00;-1.00;18980;318;7504938;-36
2023/09/12 07:38:04;;;;;;;11.10;7.40;;;;;;;-128.00;-1.00;-1.00;19039;318;7505046;-36
2023/09/12 07:40:30;;;;;;;11.70;10.10;;;;;;;-128.00;-1.00;-1.00;19452;318;7504888;-34
2023/09/12 07:42:56;;;;;;;10.20;9.00;;;;;;;-128.00;-1.00;-1.00;19435;318;7505341;-36
2023/09/12 07:45:22;;;;;;;11.20;9.60;;;;;;;-128.00;-1.00;-1.00;19456;318;7505065;-36
2023/09/12 07:47:49;;;;;;;17.20;11.70;;;;;;;-128.00;-1.00;-1.00;19472;323;7505253;-36
2023/09/12 07:50:15;;;;;;;11.50;10.20;;;;;;;-128.00;-1.00;-1.00;19405;318;7505220;-33
2023/09/12 07:52:41;;;;;;;16.40;11.60;;;;;;;-128.00;-1.00;-1.00;19446;318;7505648;-33
2023/09/12 07:55:08;;;;;;;12.40;9.70;;;;;;;-128.00;-1.00;-1.00;19436;318;7505269;-36
2023/09/12 07:57:34;;;;;;;9.20;8.40;;;;;;;-128.00;-1.00;-1.00;19032;323;7505133;-36
2023/09/12 08:00:01;;;;;;;8.60;6.60;;;;;;;-128.00;-1.00;-1.00;19004;318;7505188;-35
2023/09/12 08:02:27;;;;;;;13.30;9.00;;;;;;;-128.00;-1.00;-1.00;19028;318;7506448;-36
2023/09/12 08:04:54;;;;;;;10.00;6.90;;;;;;;-128.00;-1.00;-1.00;19006;318;7505412;-35
2023/09/12 08:07:20;;;;;;;7.80;7.00;;;;;;;-128.00;-1.00;-1.00;18995;318;7504598;-36
2023/09/12 08:09:50;;;;;;;9.20;6.80;;;;;;;-128.00;-1.00;-1.00;18997;318;7504979;-36
2023/09/12 08:12:17;;;;;;;6.70;6.20;;;;;;;-128.00;-1.00;-1.00;19034;318;7506019;-33
2023/09/12 08:14:42;;;;;;;11.50;7.30;;;;;;;-128.00;-1.00;-1.00;19022;318;7506367;-34
2023/09/12 08:17:09;;;;;;;7.80;7.10;;;;;;;-128.00;-1.00;-1.00;19004;320;7504516;-33
2023/09/12 08:19:34;;;;;;;12.60;8.40;;;;;;;-128.00;-1.00;-1.00;19006;318;7505174;-33
2023/09/12 08:22:00;;;;;;;12.90;7.10;;;;;;;-128.00;-1.00;-1.00;19000;323;7504833;-33
2023/09/12 08:24:26;;;;;;;9.00;8.20;;;;;;;-128.00;-1.00;-1.00;19425;318;7505163;-35
2023/09/12 08:26:53;;;;;;;8.20;6.80;;;;;;;-128.00;-1.00;-1.00;19455;318;7504651;-33
2023/09/12 08:29:19;;;;;;;7.40;6.70;;;;;;;-128.00;-1.00;-1.00;19416;318;7504355;-36
2023/09/12 08:31:46;;;;;;;11.20;8.00;;;;;;;-128.00;-1.00;-1.00;19425;319;7504821;-36
2023/09/12 08:34:13;;;;;;;6.90;6.30;;;;;;;-128.00;-1.00;-1.00;19015;318;7505576;-32
2023/09/12 08:36:39;;;;;;;12.80;7.10;;;;;;;-128.00;-1.00;-1.00;19013;318;7506169;-35
2023/09/12 08:39:08;;;;;;;8.20;5.80;;;;;;;-128.00;-1.00;-1.00;18996;323;7505108;-33
2023/09/12 08:41:34;;;;;;;7.80;6.80;;;;;;;-128.00;-1.00;-1.00;19022;318;7506761;-32
2023/09/12 08:43:59;;;;;;;7.30;6.70;;;;;;;-128.00;-1.00;-1.00;19021;321;7505614;-32
2023/09/12 08:46:25;;;;;;;7.40;6.80;;;;;;;-128.00;-1.00;-1.00;18973;323;7506486;-35
2023/09/12 08:48:51;;;;;;;8.60;6.40;;;;;;;-128.00;-1.00;-1.00;19467;323;7504599;-36
2023/09/12 08:51:20;;;;;;;6.40;5.50;;;;;;;-128.00;-1.00;-1.00;19447;322;7504739;-32
2023/09/12 08:53:47;;;;;;;6.70;5.60;;;;;;;-128.00;-1.00;-1.00;19039;318;7504947;-32
2023/09/12 08:56:12;;;;;;;6.20;5.30;;;;;;;-128.00;-1.00;-1.00;19003;318;7504992;-32
2023/09/12 08:58:38;;;;;;;4.90;4.40;;;;;;;-128.00;-1.00;-1.00;19036;318;7504880;-35
2023/09/12 09:01:04;;;;;;;6.50;5.60;;;;;;;-128.00;-1.00;-1.00;19012;318;7504616;-36
2023/09/12 09:03:30;;;;;;;6.40;5.70;;;;;;;-128.00;-1.00;-1.00;19025;318;7504569;-32
2023/09/12 09:05:55;;;;;;;5.90;5.40;;;;;;;-128.00;-1.00;-1.00;19019;318;7506559;-36
2023/09/12 09:08:22;;;;;;;6.20;5.50;;;;;;;-128.00;-1.00;-1.00;19432;319;7504550;-32
2023/09/12 09:10:55;;;;;;;7.60;6.00;;;;;;;-128.00;-1.00;-1.00;19022;318;7505282;-36
2023/09/12 09:13:21;;;;;;;5.20;4.80;;;;;;;-128.00;-1.00;-1.00;19012;323;7505557;-36
2023/09/12 09:15:47;;;;;;;4.50;4.10;;;;;;;-128.00;-1.00;-1.00;19024;323;7505813;-36
2023/09/12 09:18:12;;;;;;;5.30;3.90;;;;;;;-128.00;-1.00;-1.00;19039;318;7504701;-32
2023/09/12 09:20:39;;;;;;;5.60;4.90;;;;;;;-128.00;-1.00;-1.00;19027;318;7504989;-36
2023/09/12 09:23:06;;;;;;;6.50;4.10;;;;;;;-128.00;-1.00;-1.00;18506;323;7504968;-33
2023/09/12 09:25:32;;;;;;;3.90;3.60;;;;;;;-128.00;-1.00;-1.00;19031;318;7505328;-32
2023/09/12 09:27:58;;;;;;;6.30;5.80;;;;;;;-128.00;-1.00;-1.00;19013;323;7506351;-36
2023/09/12 09:30:41;;;;;;;12.10;4.50;;;;;;;-128.00;-1.00;-1.00;19017;318;7505127;-32
2023/09/12 09:33:07;;;;;;;4.70;4.30;;;;;;;-128.00;-1.00;-1.00;19012;320;7504799;-36
2023/09/12 09:35:32;;;;;;;4.30;3.90;;;;;;;-128.00;-1.00;-1.00;19036;323;7505062;-32
2023/09/12 09:37:58;;;;;;;9.50;6.10;;;;;;;-128.00;-1.00;-1.00;19438;318;7506581;-36
2023/09/12 09:40:25;;;;;;;13.80;5.50;;;;;;;-128.00;-1.00;-1.00;19464;323;7504642;-32
2023/09/12 09:42:56;;;;;;;10.10;6.30;;;;;;;-128.00;-1.00;-1.00;19450;318;7505300;-32
2023/09/12 09:45:21;;;;;;;4.80;4.20;;;;;;;-128.00;-1.00;-1.00;18987;318;7504664;-32
2023/09/12 09:47:50;;;;;;;5.90;4.70;;;;;;;-128.00;-1.00;-1.00;19028;318;7505897;-36
2023/09/12 09:50:16;;;;;;;11.20;5.20;;;;;;;-128.00;-1.00;-1.00;19039;318;7505251;-36
2023/09/12 09:52:43;;;;;;;6.30;5.90;;;;;;;-128.00;-1.00;-1.00;19019;318;7504682;-32
2023/09/12 09:55:15;;;;;;;6.20;5.40;;;;;;;-128.00;-1.00;-1.00;19046;323;7505315;-32
2023/09/12 09:57:41;;;;;;;5.90;5.10;;;;;;;-128.00;-1.00;-1.00;19013;323;7506070;-32
2023/09/12 10:00:14;;;;;;;5.00;4.60;;;;;;;-128.00;-1.00;-1.00;19025;322;7505612;-32
2023/09/12 10:02:41;;;;;;;5.70;5.20;;;;;;;-128.00;-1.00;-1.00;19002;318;7506982;-33
2023/09/12 10:05:07;;;;;;;11.00;5.50;;;;;;;-128.00;-1.00;-1.00;19037;318;7505112;-32
2023/09/12 10:07:33;;;;;;;5.70;5.20;;;;;;;-128.00;-1.00;-1.00;19033;323;7505482;-34
2023/09/12 10:10:01;;;;;;;6.50;4.80;;;;;;;-128.00;-1.00;-1.00;19017;318;7504875;-35
2023/09/12 10:12:28;;;;;;;4.40;4.00;;;;;;;-128.00;-1.00;-1.00;19016;323;7506179;-32
2023/09/12 10:14:54;;;;;;;4.90;4.40;;;;;;;-128.00;-1.00;-1.00;19026;323;7504954;-36
2023/09/12 10:17:20;;;;;;;4.70;4.30;;;;;;;-128.00;-1.00;-1.00;19051;322;7505481;-32
2023/09/12 10:19:51;;;;;;;6.30;5.80;;;;;;;-128.00;-1.00;-1.00;19001;318;7504810;-36
2023/09/12 10:22:22;;;;;;;10.60;4.30;;;;;;;-128.00;-1.00;-1.00;19016;318;7505423;-36
2023/09/12 10:24:47;;;;;;;4.30;3.90;;;;;;;-128.00;-1.00;-1.00;19036;323;7505354;-32
2023/09/12 10:27:13;;;;;;;4.80;4.40;;;;;;;-128.00;-1.00;-1.00;18981;320;7504867;-36
2023/09/12 10:29:39;;;;;;;7.80;6.10;;;;;;;-128.00;-1.00;-1.00;19006;318;7504967;-32
2023/09/12 10:32:05;;;;;;;7.00;5.20;;;;;;;-128.00;-1.00;-1.00;19011;318;7505258;-32
2023/09/12 10:34:32;;;;;;;18.10;5.60;;;;;;;-128.00;-1.00;-1.00;19020;318;7505344;-36
2023/09/12 10:36:59;;;;;;;5.70;5.00;;;;;;;-128.00;-1.00;-1.00;19019;318;7506598;-36
2023/09/12 10:39:27;;;;;;;6.50;5.90;;;;;;;-128.00;-1.00;-1.00;19010;322;7504990;-36
2023/09/12 10:41:52;;;;;;;4.10;3.80;;;;;;;-128.00;-1.00;-1.00;19020;318;7506534;-32
2023/09/12 10:44:19;;;;;;;9.20;4.50;;;;;;;-128.00;-1.00;-1.00;19004;323;7506188;-36
2023/09/12 10:46:45;;;;;;;5.00;4.50;;;;;;;-128.00;-1.00;-1.00;19008;323;7505146;-36
2023/09/12 10:49:14;;;;;;;4.10;3.70;;;;;;;-128.00;-1.00;-1.00;19454;321;7505447;-36
2023/09/12 10:51:41;;;;;;;5.40;4.90;;;;;;;-128.00;-1.00;-1.00;19116;318;7504722;-32
2023/09/12 10:54:10;;;;;;;4.50;4.10;;;;;;;-128.00;-1.00;-1.00;19009;318;7504733;-33
2023/09/12 10:56:35;;;;;;;4.90;4.50;;;;;;;-128.00;-1.00;-1.00;19022;318;7504620;-36
2023/09/12 10:59:10;;;;;;;5.10;4.40;;;;;;;-128.00;-1.00;-1.00;18976;320;7505653;-36
2023/09/12 11:01:36;;;;;;;4.90;4.50;;;;;;;-128.00;-1.00;-1.00;19023;318;7505420;-32
2023/09/12 11:04:34;;;;;;;4.00;3.60;;;;;;;-128.00;-1.00;-1.00;100729;318;1002510;-31
2023/09/12 11:07:00;;;;;;;3.00;2.80;;;;;;;-128.00;-1.00;-1.00;100754;318;1003106;-32
2023/09/12 11:09:26;;;;;;;5.60;4.60;;;;;;;-128.00;-1.00;-1.00;100651;318;1003864;-35
2023/09/12 11:12:02;;;;;;;5.80;5.30;;;;;;;-128.00;-1.00;-1.00;100774;318;1003179;-31
2023/09/12 11:14:28;;;;;;;;;;;;;;;-128.00;-1.00;-1.00;100700;320;1003788;-31
2023/09/12 11:17:16;;;;;;;5.10;4.60;;;;;;;-128.00;-1.00;-1.00;100766;318;1003304;-31
2023/09/12 11:19:49;;;;;;;15.10;4.80;;;;;;;-128.00;-1.00;-1.00;100786;318;1003912;-32
2023/09/12 11:22:25;;;;;;;10.70;3.10;;;;;;;-128.00;-1.00;-1.00;100789;318;1003516;-35
2023/09/12 11:24:51;;;;;;;10.50;5.80;;;;;;;-128.00;-1.00;-1.00;100826;318;1002802;-35
2023/09/12 11:27:17;;;;;;;4.90;2.10;;;;;;;-128.00;-1.00;-1.00;100743;317;1003085;-35
2023/09/12 11:29:43;;;;;;;6.10;4.90;;;;;;;-128.00;-1.00;-1.00;100784;318;1003798;-31
2023/09/12 11:32:09;;;;;;;6.80;6.10;;;;;;;-128.00;-1.00;-1.00;100809;318;1003153;-35
2023/09/12 11:34:42;;;;;;;1.00;0.80;;;;;;;-128.00;-1.00;-1.00;100702;318;1003560;-35
2023/09/12 11:37:08;;;;;;;5.70;4.50;;;;;;;-128.00;-1.00;-1.00;100823;317;1003006;-38
2023/09/12 11:39:35;;;;;;;4.80;4.40;;;;;;;-128.00;-1.00;-1.00;100869;318;1003672;-32
2023/09/12 11:42:02;;;;;;;4.20;3.80;;;;;;;-128.00;-1.00;-1.00;100706;318;1003490;-36
2023/09/12 11:44:28;;;;;;;4.40;4.10;;;;;;;-128.00;-1.00;-1.00;100575;318;1003259;-32
2023/09/12 11:46:54;;;;;;;6.10;5.40;;;;;;;-128.00;-1.00;-1.00;100721;318;1002936;-32
2023/09/12 11:49:20;;;;;;;3.60;3.30;;;;;;;-128.00;-1.00;-1.00;100703;318;1003457;-35
2023/09/12 11:51:50;;;;;;;6.20;4.60;;;;;;;-128.00;-1.00;-1.00;100773;318;1003991;-31
2023/09/12 11:54:20;;;;;;;5.60;4.30;;;;;;;-128.00;-1.00;-1.00;100843;318;1003861;-32
2023/09/12 11:56:49;;;;;;;9.60;4.20;;;;;;;-128.00;-1.00;-1.00;100635;319;1003698;-32
2023/09/12 11:59:18;;;;;;;9.00;5.40;;;;;;;-128.00;-1.00;-1.00;101034;318;1003201;-31
2023/09/12 12:01:46;;;;;;;4.70;4.30;;;;;;;-128.00;-1.00;-1.00;100969;318;1002971;-35